createdAt,value
2019-04-30T00:01:07.507Z,83.52
2019-04-30T00:03:55.846Z,83.52
2019-04-30T00:06:27.427Z,83.63
2019-04-30T00:08:55.090Z,83.46
2019-04-30T00:11:25.974Z,83.46
2019-04-30T00:13:58.809Z,83.55
2019-04-30T00:16:30.983Z,84.31
2019-04-30T00:19:00.944Z,84.31
2019-04-30T00:21:30.387Z,84.40
2019-04-30T00:24:00.866Z,84.10
2019-04-30T00:26:32.023Z,84.16
2019-04-30T00:29:01.802Z,84.16
2019-04-30T00:31:31.854Z,84.35
2019-04-30T00:34:01.738Z,84.65
2019-04-30T00:36:34.130Z,85.51
2019-04-30T00:39:09.028Z,86.03
2019-04-30T00:41:35.351Z,86.33
2019-04-30T00:44:05.587Z,86.33
2019-04-30T00:46:36.420Z,86.25
2019-04-30T00:49:09.807Z,86.45
2019-04-30T00:51:37.586Z,86.75
2019-04-30T00:54:07.280Z,86.62
2019-04-30T00:56:37.028Z,86.62
2019-04-30T00:59:10.459Z,87.15
2019-04-30T01:02:08.400Z,86.90
2019-04-30T01:04:44.989Z,88.20
2019-04-30T01:07:15.645Z,88.38
2019-04-30T01:09:49.449Z,88.38
2019-04-30T01:12:27.532Z,88.51
2019-04-30T01:14:49.751Z,89.34
2019-04-30T01:17:19.511Z,89.34
2019-04-30T01:19:51.131Z,89.48
2019-04-30T01:22:27.883Z,89.45
2019-04-30T01:24:52.839Z,89.13
2019-04-30T01:27:22.532Z,89.31
2019-04-30T01:29:52.453Z,89.35
2019-04-30T01:32:22.550Z,89.35
2019-04-30T01:34:53.768Z,89.62
2019-04-30T01:37:28.348Z,89.84
2019-04-30T01:39:55.228Z,89.76
2019-04-30T01:42:25.536Z,90.09
2019-04-30T01:44:55.284Z,90.09
2019-04-30T01:47:27.639Z,89.14
2019-04-30T01:50:01.040Z,88.81
2019-04-30T01:52:49.223Z,89.83
2019-04-30T01:55:19.901Z,88.92
2019-04-30T01:58:00.783Z,89.09
2019-04-30T02:00:41.142Z,89.09
2019-04-30T02:03:11.198Z,88.22
2019-04-30T02:05:41.109Z,87.61
2019-04-30T02:08:10.856Z,87.91
2019-04-30T02:10:40.969Z,87.91
2019-04-30T02:13:10.770Z,87.15
2019-04-30T02:15:40.830Z,87.62
2019-04-30T02:18:10.892Z,87.67
2019-04-30T02:20:40.995Z,87.00
2019-04-30T02:23:11.138Z,87.00
2019-04-30T02:25:41.067Z,87.34
2019-04-30T02:28:11.048Z,87.08
2019-04-30T02:30:41.095Z,87.71
2019-04-30T02:33:11.046Z,86.68
2019-04-30T02:36:03.275Z,87.26
2019-04-30T02:38:32.583Z,87.26
2019-04-30T02:41:02.518Z,87.08
2019-04-30T02:43:33.213Z,86.61
2019-04-30T02:46:03.914Z,86.61
2019-04-30T02:48:33.894Z,86.92
2019-04-30T02:51:03.803Z,86.38
2019-04-30T02:54:05.115Z,86.64
2019-04-30T02:56:35.149Z,86.64
2019-04-30T02:59:05.267Z,86.28
2019-04-30T03:01:35.434Z,85.95
2019-04-30T03:04:05.331Z,85.91
2019-04-30T03:06:35.317Z,85.91
2019-04-30T03:09:06.717Z,86.46
2019-04-30T03:11:36.753Z,86.17
2019-04-30T03:14:06.811Z,85.45
2019-04-30T03:16:52.325Z,85.70
2019-04-30T03:19:29.520Z,85.83
2019-04-30T03:22:12.058Z,85.83
2019-04-30T03:24:42.782Z,85.56
2019-04-30T03:27:13.051Z,86.04
2019-04-30T03:29:43.003Z,86.04
2019-04-30T03:32:14.296Z,85.97
2019-04-30T03:34:44.307Z,86.07
2019-04-30T03:37:14.271Z,86.04
2019-04-30T03:39:44.369Z,86.29
2019-04-30T03:42:14.101Z,85.40
2019-04-30T03:44:44.603Z,85.56
2019-04-30T03:47:14.515Z,85.56
2019-04-30T03:49:44.315Z,85.73
2019-04-30T03:52:14.226Z,85.96
2019-04-30T03:54:44.141Z,85.83
2019-04-30T03:57:13.981Z,85.83
2019-04-30T03:59:44.063Z,85.92
2019-04-30T04:02:30.062Z,86.10
2019-04-30T04:05:12.300Z,86.10
2019-04-30T04:08:10.450Z,85.39
2019-04-30T04:10:53.541Z,86.12
2019-04-30T04:13:23.735Z,86.12
2019-04-30T04:15:54.704Z,85.65
2019-04-30T04:18:24.503Z,85.44
2019-04-30T04:21:07.691Z,85.44
2019-04-30T04:23:26.306Z,85.68
2019-04-30T04:25:56.193Z,85.57
2019-04-30T04:28:26.013Z,85.60
2019-04-30T04:30:55.864Z,85.53
2019-04-30T04:33:25.906Z,85.44
2019-04-30T04:35:56.208Z,85.78
2019-04-30T04:38:26.029Z,85.78
2019-04-30T04:40:55.861Z,85.12
2019-04-30T04:43:25.818Z,85.12
2019-04-30T04:45:55.773Z,85.12
2019-04-30T04:48:25.784Z,85.66
2019-04-30T04:50:55.818Z,85.48
2019-04-30T04:53:25.738Z,85.48
2019-04-30T04:55:55.775Z,85.20
2019-04-30T04:58:25.593Z,86.05
2019-04-30T05:00:55.679Z,85.52
2019-04-30T05:03:30.490Z,85.52
2019-04-30T05:06:02.662Z,85.51
2019-04-30T05:08:31.718Z,85.32
2019-04-30T05:11:03.117Z,85.73
2019-04-30T05:13:34.718Z,85.73
2019-04-30T05:16:09.229Z,85.33
2019-04-30T05:18:39.244Z,85.11
2019-04-30T05:21:08.985Z,84.59
2019-04-30T05:23:41.054Z,84.77
2019-04-30T05:26:11.074Z,84.02
2019-04-30T05:28:41.310Z,82.32
2019-04-30T05:31:11.508Z,82.32
2019-04-30T05:33:41.800Z,81.34
2019-04-30T05:36:11.513Z,81.34
2019-04-30T05:38:46.313Z,81.24
2019-04-30T05:41:17.009Z,80.99
2019-04-30T05:43:48.845Z,80.86
2019-04-30T05:46:19.587Z,80.37
2019-04-30T05:48:49.632Z,80.37
2019-04-30T05:51:21.292Z,79.33
2019-04-30T05:53:51.811Z,79.07
2019-04-30T05:56:23.416Z,79.07
2019-04-30T05:58:53.377Z,79.35
2019-04-30T06:01:24.327Z,79.32
2019-04-30T06:03:54.448Z,78.88
2019-04-30T06:06:24.350Z,78.88
2019-04-30T06:09:06.717Z,78.85
2019-04-30T06:12:08.859Z,79.44
2019-04-30T06:14:51.589Z,77.99
2019-04-30T06:17:20.622Z,77.99
2019-04-30T06:19:51.556Z,77.66
2019-04-30T06:22:21.777Z,77.63
2019-04-30T06:24:52.035Z,77.63
2019-04-30T06:27:21.796Z,78.67
2019-04-30T06:29:52.503Z,78.67
2019-04-30T06:32:22.405Z,78.80
2019-04-30T06:34:52.598Z,78.50
2019-04-30T06:37:22.886Z,77.44
2019-04-30T06:39:52.775Z,78.00
2019-04-30T06:42:29.236Z,78.00
2019-04-30T06:44:59.112Z,77.82
2019-04-30T06:47:33.058Z,77.81
2019-04-30T06:50:01.361Z,77.36
2019-04-30T06:52:31.528Z,77.64
2019-04-30T06:55:01.385Z,77.64
2019-04-30T06:57:32.114Z,75.63
2019-04-30T07:00:02.031Z,74.66
2019-04-30T07:02:32.183Z,73.28
2019-04-30T07:05:02.059Z,73.28
2019-04-30T07:07:39.041Z,73.22
2019-04-30T07:10:26.318Z,72.40
2019-04-30T07:13:11.588Z,71.96
2019-04-30T07:15:41.666Z,71.76
2019-04-30T07:18:11.853Z,71.76
2019-04-30T07:20:41.652Z,70.52
2019-04-30T07:23:12.068Z,70.52
2019-04-30T07:25:41.978Z,71.38
2019-04-30T07:28:11.944Z,71.40
2019-04-30T07:30:41.866Z,71.27
2019-04-30T07:33:11.527Z,71.12
2019-04-30T07:35:43.230Z,71.12
2019-04-30T07:38:13.083Z,71.84
2019-04-30T07:40:42.912Z,71.84
2019-04-30T07:43:13.700Z,70.83
2019-04-30T07:45:43.470Z,70.93
2019-04-30T07:48:13.112Z,70.95
2019-04-30T07:50:43.900Z,71.12
2019-04-30T07:53:14.399Z,70.63
2019-04-30T07:55:44.312Z,70.63
2019-04-30T07:58:14.199Z,69.93
2019-04-30T08:00:44.137Z,70.09
2019-04-30T08:03:36.410Z,69.95
2019-04-30T08:06:09.727Z,69.95
2019-04-30T08:08:40.963Z,68.68
2019-04-30T08:11:22.769Z,68.68
2019-04-30T08:13:42.644Z,68.65
2019-04-30T08:16:13.087Z,67.95
2019-04-30T08:18:43.435Z,67.95
2019-04-30T08:21:14.050Z,66.50
2019-04-30T08:23:44.062Z,66.50
2019-04-30T08:26:14.050Z,65.91
2019-04-30T08:28:43.981Z,65.87
2019-04-30T08:31:19.653Z,65.21
2019-04-30T08:33:50.061Z,65.24
2019-04-30T08:36:19.815Z,65.32
2019-04-30T08:38:49.688Z,65.57
2019-04-30T08:41:19.542Z,65.46
2019-04-30T08:43:49.786Z,65.46
2019-04-30T08:46:19.865Z,66.42
2019-04-30T08:48:51.776Z,63.56
2019-04-30T08:51:21.039Z,62.29
2019-04-30T08:53:50.929Z,62.29
2019-04-30T08:56:21.998Z,61.94
2019-04-30T08:58:54.798Z,63.64
2019-04-30T09:01:23.608Z,63.66
2019-04-30T09:03:54.145Z,63.59
2019-04-30T09:06:28.719Z,63.59
2019-04-30T09:09:01.133Z,63.49
2019-04-30T09:11:42.909Z,64.48
2019-04-30T09:14:03.582Z,64.09
2019-04-30T09:16:40.919Z,64.09
2019-04-30T09:19:16.337Z,62.85
2019-04-30T09:21:48.747Z,63.55
2019-04-30T09:24:19.213Z,62.45
2019-04-30T09:26:49.622Z,62.45
2019-04-30T09:29:20.177Z,62.14
2019-04-30T09:31:51.180Z,60.72
2019-04-30T09:34:21.301Z,60.71
2019-04-30T09:36:51.559Z,60.71
2019-04-30T09:39:23.123Z,59.03
2019-04-30T09:41:53.356Z,59.69
2019-04-30T09:44:23.089Z,59.90
2019-04-30T09:46:52.935Z,59.90
2019-04-30T09:49:23.036Z,59.04
2019-04-30T09:51:52.777Z,58.97
2019-04-30T09:54:23.222Z,57.12
2019-04-30T09:56:53.547Z,57.26
2019-04-30T09:59:23.469Z,57.26
2019-04-30T10:01:53.125Z,56.94
2019-04-30T10:04:25.566Z,56.94
2019-04-30T10:06:55.797Z,56.57
2019-04-30T10:09:25.603Z,56.23
2019-04-30T10:12:02.253Z,57.83
2019-04-30T10:14:32.453Z,56.95
2019-04-30T10:17:14.276Z,56.95
2019-04-30T10:19:44.119Z,56.85
2019-04-30T10:22:14.782Z,55.75
2019-04-30T10:24:44.671Z,56.28
2019-04-30T10:27:14.378Z,54.71
2019-04-30T10:29:44.114Z,54.55
2019-04-30T10:32:14.156Z,54.55
2019-04-30T10:34:43.779Z,55.05
2019-04-30T10:37:14.618Z,55.05
2019-04-30T10:39:48.794Z,54.89
2019-04-30T10:42:17.791Z,54.89
2019-04-30T10:44:47.766Z,55.75
2019-04-30T10:47:19.181Z,55.75
2019-04-30T10:49:50.100Z,53.60
2019-04-30T10:52:19.775Z,54.52
2019-04-30T10:54:49.707Z,52.23
2019-04-30T10:57:19.464Z,51.72
2019-04-30T10:59:49.201Z,51.72
2019-04-30T11:02:19.243Z,51.59
2019-04-30T11:04:52.061Z,51.25
2019-04-30T11:07:22.034Z,51.25
2019-04-30T11:09:51.844Z,51.85
2019-04-30T11:12:21.739Z,52.46
2019-04-30T11:14:51.549Z,50.26
2019-04-30T11:17:21.761Z,49.38
2019-04-30T11:19:52.323Z,50.73
2019-04-30T11:22:22.300Z,50.73
2019-04-30T11:24:59.022Z,50.96
2019-04-30T11:27:23.926Z,50.96
2019-04-30T11:30:00.635Z,50.77
2019-04-30T11:32:28.224Z,50.59
2019-04-30T11:34:58.105Z,51.05
2019-04-30T11:37:28.148Z,51.05
2019-04-30T11:39:57.724Z,47.43
2019-04-30T11:42:27.534Z,47.43
2019-04-30T11:44:58.681Z,47.17
2019-04-30T11:47:53.617Z,45.54
2019-04-30T11:50:19.618Z,45.88
2019-04-30T11:52:49.335Z,45.88
2019-04-30T11:55:19.594Z,45.70
2019-04-30T11:57:49.563Z,46.08
2019-04-30T12:00:29.679Z,46.08
2019-04-30T12:02:59.490Z,46.36
2019-04-30T12:05:29.246Z,46.95
2019-04-30T12:08:26.637Z,48.24
2019-04-30T12:11:18.477Z,48.06
2019-04-30T12:13:48.873Z,48.06
2019-04-30T12:16:18.656Z,47.88
2019-04-30T12:18:49.820Z,47.88
2019-04-30T12:21:19.651Z,45.82
2019-04-30T12:23:49.487Z,44.54
2019-04-30T12:26:19.450Z,44.04
2019-04-30T12:28:49.135Z,44.04
2019-04-30T12:31:19.330Z,42.78
2019-04-30T12:33:52.740Z,42.83
2019-04-30T12:36:22.851Z,42.83
2019-04-30T12:38:53.159Z,44.65
2019-04-30T12:41:23.251Z,44.59
2019-04-30T12:43:53.104Z,44.59
2019-04-30T12:46:23.215Z,44.57
2019-04-30T12:49:11.767Z,44.22
2019-04-30T12:51:52.131Z,44.22
2019-04-30T12:54:41.127Z,43.39
2019-04-30T12:57:29.686Z,43.90
2019-04-30T13:00:00.504Z,43.90
2019-04-30T13:02:33.385Z,44.80
2019-04-30T13:05:03.313Z,44.80
2019-04-30T13:07:33.749Z,44.42
2019-04-30T13:10:07.977Z,44.13
2019-04-30T13:12:39.094Z,44.13
2019-04-30T13:15:10.269Z,42.89
2019-04-30T13:17:39.904Z,42.89
2019-04-30T13:20:18.574Z,44.44
2019-04-30T13:22:44.178Z,42.38
2019-04-30T13:25:13.132Z,42.38
2019-04-30T13:27:46.610Z,43.82
2019-04-30T13:30:27.016Z,43.03
2019-04-30T13:33:24.465Z,42.29
2019-04-30T13:35:54.311Z,42.57
2019-04-30T13:38:32.119Z,42.57
2019-04-30T13:41:18.735Z,43.70
2019-04-30T13:44:03.792Z,42.87
2019-04-30T13:46:34.040Z,42.87
2019-04-30T13:49:04.559Z,40.95
2019-04-30T13:51:34.441Z,40.95
2019-04-30T13:54:06.961Z,41.73
2019-04-30T13:56:39.734Z,41.18
2019-04-30T13:59:10.428Z,41.18
2019-04-30T14:01:40.962Z,42.10
2019-04-30T14:04:26.130Z,42.10
2019-04-30T14:07:22.355Z,41.54
2019-04-30T14:09:52.544Z,41.50
2019-04-30T14:12:22.243Z,41.50
2019-04-30T14:14:52.275Z,40.85
2019-04-30T14:17:22.343Z,41.98
2019-04-30T14:19:52.033Z,40.51
2019-04-30T14:22:22.004Z,40.51
2019-04-30T14:27:21.736Z,39.21
2019-04-30T14:29:52.141Z,39.21
2019-04-30T14:32:22.041Z,40.95
2019-04-30T14:34:51.595Z,41.23
2019-04-30T14:37:23.720Z,40.39
2019-04-30T14:39:54.532Z,40.39
2019-04-30T14:42:25.603Z,38.80
2019-04-30T14:45:05.976Z,38.80
2019-04-30T14:47:46.443Z,39.13
2019-04-30T14:50:19.784Z,39.13
2019-04-30T14:52:59.648Z,39.55
2019-04-30T14:55:52.829Z,41.53
2019-04-30T14:58:47.092Z,41.53
2019-04-30T15:01:34.778Z,38.93
2019-04-30T15:04:04.663Z,39.05
2019-04-30T15:06:34.352Z,38.28
2019-04-30T15:09:04.728Z,40.57
2019-04-30T15:11:34.362Z,40.57
2019-04-30T15:14:04.688Z,38.67
2019-04-30T15:16:34.389Z,38.37
2019-04-30T15:21:27.205Z,35.88
2019-04-30T15:24:14.913Z,35.97
2019-04-30T15:26:44.567Z,35.97
2019-04-30T15:29:16.136Z,36.59
2019-04-30T15:31:46.058Z,35.92
2019-04-30T15:34:16.116Z,35.92
2019-04-30T15:36:46.145Z,36.24
2019-04-30T15:39:21.683Z,35.39
2019-04-30T15:41:52.139Z,37.47
2019-04-30T15:44:22.042Z,35.17
2019-04-30T15:46:53.328Z,35.17
2019-04-30T15:49:27.602Z,36.24
2019-04-30T15:52:00.083Z,36.20
2019-04-30T15:54:29.905Z,35.30
2019-04-30T15:57:03.287Z,35.30
2019-04-30T15:59:44.068Z,34.77
2019-04-30T16:02:22.357Z,34.77
2019-04-30T16:05:11.225Z,34.46
2019-04-30T16:08:02.817Z,35.04
2019-04-30T16:10:58.538Z,35.44
2019-04-30T16:13:34.004Z,35.44
2019-04-30T16:16:03.887Z,35.59
2019-04-30T16:18:44.060Z,35.33
2019-04-30T16:21:13.768Z,35.33
2019-04-30T16:23:44.089Z,34.87
2019-04-30T16:26:14.365Z,36.58
2019-04-30T16:28:45.925Z,36.58
2019-04-30T16:31:16.105Z,35.41
2019-04-30T16:33:46.074Z,36.27
2019-04-30T16:36:16.017Z,37.56
2019-04-30T16:38:46.041Z,37.56
2019-04-30T16:41:28.485Z,38.21
2019-04-30T16:43:48.836Z,38.79
2019-04-30T16:46:19.332Z,38.79
2019-04-30T16:48:49.406Z,39.22
2019-04-30T16:51:19.351Z,40.54
2019-04-30T16:53:49.420Z,40.54
2019-04-30T16:56:19.251Z,41.34
2019-04-30T16:59:02.607Z,41.14
2019-04-30T17:01:33.572Z,41.32
2019-04-30T17:04:23.073Z,42.56
2019-04-30T17:07:16.567Z,42.56
2019-04-30T17:10:22.042Z,43.04
2019-04-30T17:13:18.906Z,43.04
2019-04-30T17:15:52.076Z,43.83
2019-04-30T17:18:22.820Z,43.83
2019-04-30T17:20:53.004Z,43.85
2019-04-30T17:23:22.805Z,43.85
2019-04-30T17:25:53.166Z,43.91
2019-04-30T17:28:23.323Z,43.86
2019-04-30T17:30:53.126Z,44.55
2019-04-30T17:33:23.050Z,44.40
2019-04-30T17:35:53.364Z,44.99
2019-04-30T17:38:23.095Z,44.99
2019-04-30T17:40:53.330Z,44.94
2019-04-30T17:43:24.484Z,45.42
2019-04-30T17:45:58.888Z,45.16
2019-04-30T17:48:33.263Z,46.08
2019-04-30T17:51:03.361Z,45.94
2019-04-30T17:53:34.690Z,46.25
2019-04-30T17:56:04.729Z,47.11
2019-04-30T17:58:35.715Z,47.88
2019-04-30T18:01:12.148Z,48.22
2019-04-30T18:03:42.132Z,48.34
2019-04-30T18:06:12.086Z,48.34
2019-04-30T18:08:41.963Z,49.28
2019-04-30T18:11:12.338Z,49.28
2019-04-30T18:13:42.408Z,49.99
2019-04-30T18:16:12.237Z,49.69
2019-04-30T18:18:51.055Z,50.00
2019-04-30T18:21:27.104Z,50.86
2019-04-30T18:24:16.845Z,51.73
2019-04-30T18:26:51.117Z,51.73
2019-04-30T18:29:21.445Z,53.97
2019-04-30T18:31:51.673Z,54.40
2019-04-30T18:34:21.701Z,54.40
2019-04-30T18:36:52.457Z,55.43
2019-04-30T18:39:22.937Z,56.06
2019-04-30T18:41:54.499Z,57.78
2019-04-30T18:44:26.161Z,57.78
2019-04-30T18:46:56.432Z,58.15
2019-04-30T18:49:28.699Z,58.52
2019-04-30T18:51:59.866Z,59.53
2019-04-30T18:54:31.391Z,60.91
2019-04-30T18:57:01.480Z,60.91
2019-04-30T18:59:32.724Z,60.46
2019-04-30T19:02:05.117Z,61.31
2019-04-30T19:04:38.942Z,61.31
2019-04-30T19:07:29.686Z,62.80
2019-04-30T19:10:16.714Z,63.38
2019-04-30T19:12:55.996Z,63.38
2019-04-30T19:16:14.958Z,63.59
2019-04-30T19:18:31.793Z,63.46
2019-04-30T19:21:01.756Z,63.86
2019-04-30T19:23:34.698Z,64.40
2019-04-30T19:26:05.859Z,65.61
2019-04-30T19:28:36.060Z,65.76
2019-04-30T19:31:11.705Z,66.13
2019-04-30T19:33:41.107Z,66.13
2019-04-30T19:36:12.657Z,67.41
2019-04-30T19:38:43.153Z,67.45
2019-04-30T19:41:13.257Z,67.45
2019-04-30T19:43:43.333Z,68.00
2019-04-30T19:46:13.347Z,68.00
2019-04-30T19:48:43.684Z,68.57
2019-04-30T19:51:14.461Z,68.33
2019-04-30T19:53:44.191Z,69.01
2019-04-30T19:56:15.147Z,68.94
2019-04-30T19:58:59.133Z,68.17
2019-04-30T20:01:20.754Z,68.58
2019-04-30T20:03:51.695Z,68.97
2019-04-30T20:06:22.112Z,68.97
2019-04-30T20:08:54.664Z,69.82
2019-04-30T20:11:24.398Z,69.82
2019-04-30T20:13:54.411Z,70.22
2019-04-30T20:16:24.382Z,70.02
2019-04-30T20:18:55.904Z,70.21
2019-04-30T20:21:31.865Z,70.21
2019-04-30T20:23:58.078Z,70.30
2019-04-30T20:26:27.808Z,70.54
2019-04-30T20:28:58.967Z,70.49
2019-04-30T20:31:29.531Z,70.49
2019-04-30T20:34:01.465Z,70.67
2019-04-30T20:36:31.418Z,71.46
2019-04-30T20:39:25.739Z,71.54
2019-04-30T20:41:56.271Z,70.86
2019-04-30T20:44:26.393Z,71.65
2019-04-30T20:46:58.969Z,71.65
2019-04-30T20:49:29.130Z,71.42
2019-04-30T20:52:00.307Z,72.16
2019-04-30T20:54:30.117Z,72.14
2019-04-30T20:57:00.256Z,71.60
2019-04-30T20:59:30.455Z,72.47
2019-04-30T21:02:00.813Z,72.03
2019-04-30T21:04:31.522Z,72.50
2019-04-30T21:07:02.154Z,73.58
2019-04-30T21:09:32.411Z,73.59
2019-04-30T21:12:02.631Z,73.99
2019-04-30T21:14:33.366Z,74.09
2019-04-30T21:17:03.619Z,74.09
2019-04-30T21:19:33.531Z,73.98
2019-04-30T21:22:04.410Z,74.17
2019-04-30T21:24:35.153Z,73.69
2019-04-30T21:27:05.516Z,74.27
2019-04-30T21:29:39.144Z,73.67
2019-04-30T21:32:26.566Z,74.07
2019-04-30T21:35:08.125Z,73.40
2019-04-30T21:37:38.157Z,73.27
2019-04-30T21:40:09.727Z,73.44
2019-04-30T21:42:39.791Z,73.44
2019-04-30T21:45:10.101Z,74.56
2019-04-30T21:47:40.458Z,74.58
2019-04-30T21:50:10.269Z,75.02
2019-04-30T21:52:40.352Z,75.02
2019-04-30T21:55:13.073Z,74.92
2019-04-30T21:57:43.413Z,74.92
2019-04-30T22:00:15.936Z,75.76
2019-04-30T22:02:49.954Z,75.81
2019-04-30T22:05:19.066Z,75.81
2019-04-30T22:07:51.154Z,75.15
2019-04-30T22:10:21.212Z,75.15
2019-04-30T22:12:51.396Z,74.76
2019-04-30T22:15:21.706Z,74.85
2019-04-30T22:17:52.137Z,74.58
2019-04-30T22:20:25.420Z,74.60
2019-04-30T22:22:55.636Z,75.27
2019-04-30T22:25:25.995Z,75.27
2019-04-30T22:27:56.232Z,75.39
2019-04-30T22:30:26.039Z,75.22
2019-04-30T22:32:55.944Z,75.25
2019-04-30T22:35:51.214Z,75.54
2019-04-30T22:38:24.917Z,75.54
2019-04-30T22:40:54.758Z,75.41
2019-04-30T22:43:25.126Z,76.15
2019-04-30T22:45:59.674Z,76.12
2019-04-30T22:48:29.733Z,76.17
2019-04-30T22:51:00.229Z,75.69
2019-04-30T22:53:30.187Z,76.22
2019-04-30T22:56:00.241Z,76.21
2019-04-30T22:58:30.325Z,76.21
2019-04-30T23:01:21.893Z,76.27
2019-04-30T23:03:53.898Z,76.58
2019-04-30T23:06:24.140Z,77.03
2019-04-30T23:08:53.848Z,77.72
2019-04-30T23:11:23.777Z,77.69
2019-04-30T23:13:55.151Z,77.63
2019-04-30T23:16:29.263Z,77.33
2019-04-30T23:18:56.687Z,77.33
2019-04-30T23:21:27.310Z,77.40
2019-04-30T23:23:57.476Z,77.28
2019-04-30T23:26:28.006Z,77.49
2019-04-30T23:28:58.128Z,77.49
2019-04-30T23:31:27.960Z,77.55
2019-04-30T23:33:58.157Z,78.07
2019-04-30T23:36:28.556Z,78.64
2019-04-30T23:38:58.480Z,77.85
2019-04-30T23:41:28.358Z,77.85
2019-04-30T23:43:59.068Z,79.03
2019-04-30T23:46:29.141Z,79.03
2019-04-30T23:48:59.144Z,79.35
2019-04-30T23:51:28.894Z,78.75
2019-04-30T23:53:58.616Z,79.31
2019-04-30T23:56:28.694Z,78.81
2019-04-30T23:58:59.171Z,78.81
